createdAt,value
2023-04-19T00:00:12.189Z,76.78
2023-04-19T00:02:40.903Z,76.79
2023-04-19T00:05:09.190Z,76.87
2023-04-19T00:07:36.235Z,75.99
2023-04-19T00:10:03.330Z,75.80
2023-04-19T00:12:29.740Z,75.16
2023-04-19T00:14:56.138Z,74.11
2023-04-19T00:17:22.948Z,74.35
2023-04-19T00:19:49.466Z,73.35
2023-04-19T00:22:17.256Z,72.65
2023-04-19T00:24:43.641Z,72.33
2023-04-19T00:27:10.055Z,71.57
2023-04-19T00:29:36.477Z,71.60
2023-04-19T00:32:04.076Z,70.21
2023-04-19T00:34:30.471Z,70.06
2023-04-19T00:36:57.081Z,69.18
2023-04-19T00:39:23.718Z,69.15
2023-04-19T00:41:50.116Z,67.85
2023-04-19T00:44:18.559Z,66.96
2023-04-19T00:46:45.394Z,67.83
2023-04-19T00:49:11.956Z,66.65
2023-04-19T00:51:38.450Z,66.67
2023-04-19T00:54:05.015Z,67.15
2023-04-19T00:56:34.074Z,66.77
2023-04-19T00:59:00.591Z,66.59
2023-04-19T01:01:27.067Z,66.10
2023-04-19T01:04:19.040Z,65.87
2023-04-19T01:06:46.516Z,66.05
2023-04-19T01:09:12.917Z,66.42
2023-04-19T01:11:43.168Z,65.54
2023-04-19T01:14:10.026Z,65.22
2023-04-19T01:16:36.423Z,65.68
2023-04-19T01:19:12.404Z,64.86
2023-04-19T01:21:40.313Z,64.78
2023-04-19T01:24:07.080Z,64.78
2023-04-19T01:26:33.495Z,65.08
2023-04-19T01:29:02.266Z,65.70
2023-04-19T01:31:28.733Z,65.19
2023-04-19T01:33:55.218Z,64.68
2023-04-19T01:36:21.653Z,64.62
2023-04-19T01:38:48.050Z,64.78
2023-04-19T01:41:14.536Z,64.74
2023-04-19T01:43:40.926Z,65.03
2023-04-19T01:46:08.368Z,65.39
2023-04-19T01:48:37.662Z,66.12
2023-04-19T01:51:04.208Z,65.38
2023-04-19T01:53:30.626Z,65.66
2023-04-19T01:55:57.022Z,65.80
2023-04-19T01:58:23.397Z,66.32
2023-04-19T02:00:49.860Z,66.62
2023-04-19T02:03:16.682Z,66.28
2023-04-19T02:05:46.445Z,66.83
2023-04-19T02:08:12.846Z,66.96
2023-04-19T02:10:39.280Z,66.75
2023-04-19T02:13:05.996Z,67.03
2023-04-19T02:15:33.570Z,67.81
2023-04-19T02:18:00.266Z,68.07
2023-04-19T02:20:26.844Z,68.83
2023-04-19T02:22:53.256Z,68.76
2023-04-19T02:25:19.972Z,68.97
2023-04-19T02:27:46.376Z,69.92
2023-04-19T02:30:13.028Z,69.78
2023-04-19T02:32:39.531Z,70.23
2023-04-19T02:35:06.587Z,70.81
2023-04-19T02:37:33.041Z,70.37
2023-04-19T02:39:59.459Z,71.29
2023-04-19T02:42:28.665Z,70.87
2023-04-19T02:44:55.097Z,70.59
2023-04-19T02:47:24.055Z,71.60
2023-04-19T02:49:50.489Z,72.06
2023-04-19T02:52:17.853Z,71.97
2023-04-19T02:54:44.955Z,71.94
2023-04-19T02:57:11.383Z,71.85
2023-04-19T02:59:39.890Z,71.84
2023-04-19T03:02:06.471Z,72.10
2023-04-19T03:04:32.969Z,72.25
2023-04-19T03:06:59.491Z,72.60
2023-04-19T03:09:26.268Z,72.31
2023-04-19T03:11:53.223Z,72.51
2023-04-19T03:14:19.650Z,73.01
2023-04-19T03:16:47.248Z,72.69
2023-04-19T03:19:13.771Z,72.75
2023-04-19T03:21:46.882Z,72.76
2023-04-19T03:24:13.505Z,73.12
2023-04-19T03:26:45.132Z,73.11
2023-04-19T03:29:13.149Z,73.68
2023-04-19T03:31:50.007Z,74.05
2023-04-19T03:34:18.154Z,73.81
2023-04-19T03:36:46.804Z,73.99
2023-04-19T03:39:13.215Z,74.34
2023-04-19T03:41:41.531Z,75.28
2023-04-19T03:44:20.333Z,75.75
2023-04-19T03:46:48.698Z,76.33
2023-04-19T03:49:18.936Z,75.11
2023-04-19T03:51:50.437Z,75.55
2023-04-19T03:54:17.035Z,76.40
2023-04-19T03:56:43.569Z,76.23
2023-04-19T03:59:10.523Z,77.00
2023-04-19T04:01:41.925Z,76.85
2023-04-19T04:04:09.145Z,77.40
2023-04-19T04:06:37.206Z,77.76
2023-04-19T04:09:04.068Z,77.54
2023-04-19T04:11:30.844Z,78.30
2023-04-19T04:13:57.709Z,79.25
2023-04-19T04:16:47.367Z,80.17
2023-04-19T04:19:15.786Z,78.93
2023-04-19T04:21:42.337Z,79.06
2023-04-19T04:24:09.850Z,79.61
2023-04-19T04:26:43.014Z,80.80
2023-04-19T04:29:18.055Z,80.74
2023-04-19T04:31:45.219Z,80.27
2023-04-19T04:34:14.316Z,80.03
2023-04-19T04:36:50.516Z,80.63
2023-04-19T04:39:18.939Z,81.40
2023-04-19T04:41:46.293Z,81.15
2023-04-19T04:44:13.219Z,82.10
2023-04-19T04:46:41.439Z,82.21
2023-04-19T04:49:09.953Z,81.81
2023-04-19T04:51:37.274Z,82.25
2023-04-19T04:54:05.504Z,83.44
2023-04-19T04:56:32.276Z,83.88
2023-04-19T04:58:59.182Z,84.09
2023-04-19T05:01:30.371Z,83.91
2023-04-19T05:03:57.269Z,84.18
2023-04-19T05:06:23.816Z,83.37
2023-04-19T05:08:50.351Z,84.44
2023-04-19T05:11:27.433Z,82.82
2023-04-19T05:13:54.125Z,82.34
2023-04-19T05:16:20.843Z,83.64
2023-04-19T05:22:25.496Z,81.12
2023-04-19T05:24:52.203Z,81.03
2023-04-19T05:27:18.624Z,81.36
2023-04-19T05:29:45.067Z,80.99
2023-04-19T05:32:11.557Z,80.27
2023-04-19T05:34:45.314Z,79.42
2023-04-19T05:37:14.492Z,78.50
2023-04-19T05:39:44.050Z,78.55
2023-04-19T05:42:10.979Z,78.35
2023-04-19T05:44:37.431Z,77.80
2023-04-19T05:47:04.117Z,76.92
2023-04-19T05:49:52.449Z,76.26
2023-04-19T05:52:26.263Z,75.69
2023-04-19T05:54:55.379Z,75.11
2023-04-19T05:57:21.811Z,74.39
2023-04-19T05:59:48.375Z,73.74
2023-04-19T06:02:18.421Z,73.17
2023-04-19T06:04:45.936Z,73.28
2023-04-19T06:07:22.254Z,72.28
2023-04-19T06:09:57.149Z,72.04
2023-04-19T06:12:23.665Z,72.00
2023-04-19T06:14:50.071Z,71.63
2023-04-19T06:17:17.010Z,71.11
2023-04-19T06:19:43.512Z,69.84
2023-04-19T06:22:09.953Z,69.13
2023-04-19T06:24:36.426Z,68.66
2023-04-19T06:27:02.846Z,68.07
2023-04-19T06:29:29.252Z,67.93
2023-04-19T06:31:55.867Z,67.54
2023-04-19T06:34:22.291Z,67.64
2023-04-19T06:36:48.693Z,66.38
2023-04-19T06:39:15.121Z,66.48
2023-04-19T06:41:41.509Z,66.79
2023-04-19T06:44:07.915Z,66.01
2023-04-19T06:46:34.339Z,66.04
2023-04-19T06:49:00.742Z,65.70
2023-04-19T06:51:27.165Z,64.96
2023-04-19T06:53:53.548Z,63.48
2023-04-19T06:56:39.765Z,63.56
2023-04-19T06:59:06.179Z,63.59
2023-04-19T07:01:32.626Z,63.28
2023-04-19T07:03:59.871Z,63.61
2023-04-19T09:46:53.553Z,48.32
2023-04-19T09:49:41.205Z,48.62
2023-04-19T09:52:13.491Z,47.65
2023-04-19T09:54:39.925Z,48.46
2023-04-19T09:57:06.489Z,47.49
2023-04-19T09:59:32.918Z,47.78
2023-04-19T10:02:00.709Z,47.68
2023-04-19T10:04:38.388Z,47.02
2023-04-19T10:14:47.626Z,45.20
2023-04-19T10:17:14.094Z,47.67
2023-04-19T10:19:41.577Z,46.61
2023-04-19T10:22:08.902Z,46.44
2023-04-19T10:24:35.316Z,46.10
2023-04-19T10:27:12.592Z,47.21
2023-04-19T10:30:04.165Z,46.77
2023-04-19T10:32:42.559Z,48.30
2023-04-19T10:35:34.842Z,46.75
2023-04-19T10:38:16.430Z,47.09
2023-04-19T10:40:52.111Z,47.18
2023-04-19T10:43:19.670Z,45.90
2023-04-19T10:45:46.450Z,47.21
2023-04-19T10:48:35.060Z,46.54
2023-04-19T10:51:21.406Z,46.83
2023-04-19T10:53:56.188Z,44.78
2023-04-19T10:57:02.734Z,45.61
2023-04-19T10:59:30.595Z,45.59
2023-04-19T11:01:59.663Z,46.19
2023-04-19T11:04:32.955Z,46.14
2023-04-19T11:07:02.644Z,46.14
2023-04-19T11:09:34.580Z,46.07
2023-04-19T11:12:09.976Z,44.77
2023-04-19T11:14:47.570Z,46.59
2023-04-19T11:17:17.971Z,45.05
2023-04-19T11:20:01.782Z,45.77
2023-04-19T11:22:36.168Z,45.67
2023-04-19T11:25:17.985Z,45.76
2023-04-19T11:27:53.004Z,45.91
2023-04-19T11:30:22.538Z,46.05
2023-04-19T11:32:54.527Z,45.73
2023-04-19T11:35:28.744Z,45.86
2023-04-19T11:37:56.648Z,45.59
2023-04-19T11:40:24.254Z,46.83
2023-04-19T11:42:55.906Z,46.01
2023-04-19T12:12:42.040Z,46.04
2023-04-19T12:15:08.964Z,46.51
2023-04-19T12:17:57.474Z,45.93
2023-04-19T12:20:34.175Z,45.09
2023-04-19T12:23:00.994Z,46.44
2023-04-19T12:34:31.925Z,45.73
2023-04-19T12:41:04.290Z,45.75
2023-04-19T12:43:31.894Z,45.91
2023-04-19T12:46:01.313Z,45.80
2023-04-19T12:48:28.205Z,46.06
2023-04-19T12:50:55.047Z,45.75
2023-04-19T12:53:24.110Z,45.56
2023-04-19T12:55:50.662Z,46.27
2023-04-19T12:58:17.916Z,46.29
2023-04-19T13:00:44.756Z,46.47
2023-04-19T13:03:12.601Z,46.81
2023-04-19T13:05:39.584Z,47.33
2023-04-19T13:08:06.476Z,45.34
2023-04-19T13:10:32.908Z,45.38
2023-04-19T13:15:54.215Z,45.78
2023-04-19T13:18:20.978Z,46.04
2023-04-19T13:20:48.220Z,44.76
2023-04-19T13:23:15.589Z,45.77
2023-04-19T13:25:42.028Z,45.04
2023-04-19T13:28:08.442Z,44.58
2023-04-19T13:30:34.843Z,41.85
2023-04-19T13:33:01.330Z,41.38
2023-04-19T13:35:27.808Z,42.12
2023-04-19T13:37:54.231Z,40.38
2023-04-19T13:40:20.717Z,40.68
2023-04-19T13:42:47.387Z,41.23
2023-04-19T13:45:13.935Z,40.48
2023-04-19T13:47:40.424Z,40.98
2023-04-19T13:50:07.417Z,40.87
2023-04-19T13:52:33.893Z,40.53
2023-04-19T13:55:00.672Z,40.39
2023-04-19T13:57:27.115Z,41.16
2023-04-19T13:59:53.550Z,41.61
2023-04-19T14:02:20.195Z,41.79
2023-04-19T14:04:46.689Z,41.92
2023-04-19T14:07:13.127Z,42.17
2023-04-19T14:09:39.601Z,42.42
2023-04-19T14:12:06.974Z,42.23
2023-04-19T14:14:33.413Z,42.52
2023-04-19T14:16:59.809Z,42.53
2023-04-19T14:19:26.336Z,42.62
2023-04-19T14:21:52.790Z,43.09
2023-04-19T14:24:19.560Z,43.61
2023-04-19T14:26:48.698Z,43.78
2023-04-19T14:29:20.823Z,45.09
2023-04-19T14:31:47.328Z,44.73
2023-04-19T14:34:13.770Z,44.77
2023-04-19T14:36:40.427Z,44.55
2023-04-19T14:39:06.868Z,44.79
2023-04-19T14:41:33.269Z,44.34
2023-04-19T14:43:59.720Z,44.07
2023-04-19T14:46:26.228Z,44.94
2023-04-19T14:48:52.684Z,44.71
2023-04-19T14:51:19.098Z,44.84
2023-04-19T14:53:45.612Z,45.30
2023-04-19T14:56:12.037Z,45.53
2023-04-19T14:58:38.483Z,45.35
2023-04-19T15:01:14.830Z,45.47
2023-04-19T15:03:41.653Z,46.32
2023-04-19T15:06:08.278Z,46.74
2023-04-19T15:08:34.719Z,47.06
2023-04-19T15:11:01.192Z,46.95
2023-04-19T15:13:29.603Z,47.52
2023-04-19T15:15:56.059Z,49.31
2023-04-19T15:18:22.617Z,50.47
2023-04-19T15:20:49.020Z,52.37
2023-04-19T15:23:15.887Z,56.60
2023-04-19T15:25:42.334Z,60.36
2023-04-19T15:28:08.756Z,64.11
2023-04-19T15:30:36.132Z,67.71
2023-04-19T15:33:02.613Z,72.12
2023-04-19T15:35:29.136Z,76.60
2023-04-19T15:37:55.567Z,79.53
2023-04-19T15:40:24.392Z,82.55
2023-04-19T15:42:50.812Z,84.49
2023-04-19T15:45:17.406Z,85.71
2023-04-19T15:47:43.917Z,86.89
2023-04-19T15:50:10.378Z,86.81
2023-04-19T15:52:36.792Z,87.30
2023-04-19T15:55:03.330Z,88.45
2023-04-19T15:57:29.749Z,89.41
2023-04-19T15:59:56.168Z,90.25
2023-04-19T16:02:22.735Z,90.05
2023-04-19T16:04:49.965Z,89.77
2023-04-19T16:07:16.447Z,89.41
2023-04-19T16:09:42.890Z,88.47
2023-04-19T16:12:09.476Z,89.59
2023-04-19T16:14:36.101Z,90.20
2023-04-19T16:17:02.562Z,90.36
2023-04-19T16:19:28.983Z,89.66
2023-04-19T16:21:55.390Z,90.24
2023-04-19T16:24:21.810Z,90.15
2023-04-19T16:26:48.371Z,93.40
2023-04-19T16:29:15.198Z,92.58
2023-04-19T16:31:42.208Z,91.04
2023-04-19T16:34:08.829Z,93.31
2023-04-19T16:36:36.106Z,90.48
2023-04-19T16:39:02.700Z,93.52
2023-04-19T16:41:29.899Z,90.70
2023-04-19T16:43:56.739Z,94.57
2023-04-19T16:46:23.445Z,95.23
2023-04-19T16:48:50.126Z,91.67
2023-04-19T16:51:16.696Z,94.47
2023-04-19T16:53:45.478Z,94.17
2023-04-19T16:56:12.278Z,94.00
2023-04-19T16:58:38.995Z,94.07
2023-04-19T17:01:05.788Z,93.18
2023-04-19T17:03:35.169Z,93.82
2023-04-19T17:06:01.992Z,94.99
2023-04-19T17:08:28.763Z,94.22
2023-04-19T17:10:55.762Z,95.46
2023-04-19T17:13:22.472Z,93.29
2023-04-19T17:15:49.218Z,94.76
2023-04-19T17:18:16.059Z,97.42
2023-04-19T17:20:42.767Z,95.92
2023-04-19T17:23:09.536Z,94.60
2023-04-19T17:25:36.441Z,94.38
2023-04-19T17:28:03.861Z,93.45
2023-04-19T17:30:30.802Z,97.50
2023-04-19T17:32:57.583Z,94.38
2023-04-19T17:35:26.161Z,96.03
2023-04-19T17:37:52.880Z,95.80
2023-04-19T17:40:19.736Z,96.65
2023-04-19T17:42:46.368Z,96.93
2023-04-19T17:45:13.167Z,98.70
2023-04-19T17:47:40.575Z,99.03
2023-04-19T17:50:10.343Z,99.92
2023-04-19T17:52:39.639Z,100.00
2023-04-19T17:55:07.421Z,100.00
2023-04-19T17:57:34.662Z,100.00
2023-04-19T18:00:06.075Z,100.00
2023-04-19T18:02:35.777Z,100.00
2023-04-19T18:05:02.723Z,100.00
2023-04-19T18:07:29.330Z,100.00
2023-04-19T18:09:55.784Z,100.00
2023-04-19T18:12:23.027Z,100.00
2023-04-19T18:14:49.452Z,100.00
2023-04-19T18:17:15.860Z,100.00
2023-04-19T18:19:42.390Z,100.00
2023-04-19T18:22:08.838Z,100.00
2023-04-19T18:24:35.415Z,100.00
2023-04-19T18:27:03.177Z,100.00
2023-04-19T18:29:29.596Z,100.00
2023-04-19T18:31:56.046Z,100.00
2023-04-19T18:34:22.472Z,100.00
2023-04-19T18:36:48.944Z,100.00
2023-04-19T18:39:17.464Z,100.00
2023-04-19T18:41:44.174Z,100.00
2023-04-19T18:44:29.587Z,100.00
2023-04-19T18:46:57.075Z,100.00
2023-04-19T18:49:23.483Z,100.00
2023-04-19T18:51:50.959Z,100.00
2023-04-19T18:54:19.322Z,100.00
2023-04-19T18:59:15.917Z,100.00
2023-04-19T19:01:45.102Z,100.00
2023-04-19T19:04:33.998Z,100.00
2023-04-19T19:07:05.145Z,100.00
2023-04-19T19:09:38.108Z,100.00
2023-04-19T19:12:04.746Z,100.00
2023-04-19T19:14:35.563Z,100.00
2023-04-19T19:17:02.931Z,100.00
2023-04-19T19:19:29.697Z,100.00
2023-04-19T19:21:56.241Z,100.00
2023-04-19T19:24:22.773Z,100.00
2023-04-19T19:26:49.211Z,100.00
2023-04-19T19:29:16.924Z,100.00
2023-04-19T19:31:43.431Z,100.00
2023-04-19T19:34:25.312Z,100.00
2023-04-19T19:36:55.447Z,100.00
2023-04-19T19:39:22.157Z,100.00
2023-04-19T19:42:05.241Z,100.00
2023-04-19T19:44:32.595Z,100.00
2023-04-19T19:46:59.123Z,100.00
2023-04-19T19:49:26.242Z,100.00
2023-04-19T19:51:58.180Z,100.00
2023-04-19T19:54:25.359Z,100.00
2023-04-19T19:59:21.513Z,100.00
2023-04-19T20:01:54.838Z,100.00
2023-04-19T20:04:22.750Z,100.00
2023-04-19T20:09:18.849Z,100.00
2023-04-19T20:11:45.471Z,100.00
2023-04-19T20:14:11.883Z,100.00
2023-04-19T20:16:38.402Z,100.00
2023-04-19T20:19:09.541Z,100.00
2023-04-19T20:21:39.049Z,100.00
2023-04-19T20:24:05.956Z,100.00
2023-04-19T20:26:32.816Z,100.00
2023-04-19T20:28:59.432Z,100.00
2023-04-19T20:31:26.449Z,100.00
2023-04-19T20:33:53.431Z,100.00
2023-04-19T20:36:22.553Z,100.00
2023-04-19T20:38:49.808Z,100.00
2023-04-19T20:41:16.753Z,100.00
2023-04-19T20:43:43.226Z,100.00
2023-04-19T20:46:10.528Z,100.00
2023-04-19T20:48:37.138Z,100.00
2023-04-19T20:51:03.606Z,100.00
2023-04-19T20:53:30.027Z,100.00
2023-04-19T20:55:56.434Z,100.00
2023-04-19T20:58:22.839Z,100.00
2023-04-19T21:00:49.847Z,100.00
2023-04-19T21:03:16.484Z,100.00
2023-04-19T21:05:43.135Z,100.00
2023-04-19T21:08:09.539Z,100.00
2023-04-19T21:10:35.955Z,100.00
2023-04-19T21:13:02.368Z,100.00
2023-04-19T21:15:28.804Z,100.00
2023-04-19T21:17:55.269Z,100.00
2023-04-19T21:20:21.706Z,100.00
2023-04-19T21:22:48.615Z,100.00
2023-04-19T21:25:15.033Z,100.00
2023-04-19T21:27:42.196Z,100.00
2023-04-19T21:30:10.028Z,100.00
2023-04-19T21:32:36.490Z,100.00
2023-04-19T21:35:03.558Z,100.00
2023-04-19T21:37:30.539Z,100.00
2023-04-19T21:39:57.735Z,100.00
2023-04-19T21:42:24.351Z,100.00
2023-04-19T21:44:50.753Z,100.00
2023-04-19T21:47:17.171Z,100.00
2023-04-19T21:49:43.573Z,100.00
2023-04-19T21:52:10.897Z,100.00
2023-04-19T21:54:37.329Z,100.00
2023-04-19T21:57:03.919Z,100.00
2023-04-19T21:59:30.926Z,100.00
2023-04-19T22:01:58.621Z,100.00
2023-04-19T22:04:25.252Z,100.00
2023-04-19T22:06:51.888Z,100.00
2023-04-19T22:09:18.458Z,100.00
2023-04-19T22:11:45.841Z,100.00
2023-04-19T22:14:12.759Z,100.00
2023-04-19T22:16:39.213Z,100.00
2023-04-19T22:19:05.630Z,100.00
2023-04-19T22:21:32.733Z,100.00
2023-04-19T22:23:59.172Z,100.00
2023-04-19T22:26:26.261Z,100.00
2023-04-19T22:28:53.648Z,100.00
2023-04-19T22:31:20.065Z,100.00
2023-04-19T22:33:46.503Z,100.00
2023-04-19T22:36:12.943Z,100.00
2023-04-19T22:38:39.370Z,100.00
2023-04-19T22:41:05.758Z,100.00
2023-04-19T22:43:33.028Z,100.00
2023-04-19T22:45:59.569Z,100.00
2023-04-19T22:48:27.932Z,100.00
2023-04-19T22:50:54.330Z,100.00
2023-04-19T22:53:20.709Z,100.00
2023-04-19T22:55:47.241Z,100.00
2023-04-19T22:58:13.632Z,100.00
2023-04-19T23:00:40.049Z,100.00
2023-04-19T23:03:06.939Z,100.00
2023-04-19T23:05:33.589Z,100.00
2023-04-19T23:08:00.139Z,100.00
2023-04-19T23:10:26.910Z,100.00
2023-04-19T23:12:57.269Z,100.00
2023-04-19T23:15:24.828Z,100.00
2023-04-19T23:17:51.738Z,100.00
2023-04-19T23:20:18.772Z,100.00
2023-04-19T23:22:45.204Z,100.00
2023-04-19T23:25:11.636Z,100.00
2023-04-19T23:27:38.170Z,100.00
2023-04-19T23:30:07.617Z,100.00
2023-04-19T23:32:34.059Z,100.00
2023-04-19T23:35:00.563Z,100.00
2023-04-19T23:37:26.969Z,100.00
2023-04-19T23:39:53.368Z,100.00
2023-04-19T23:42:19.840Z,100.00
2023-04-19T23:44:46.251Z,100.00
2023-04-19T23:47:12.662Z,100.00
2023-04-19T23:49:39.073Z,100.00
2023-04-19T23:52:05.486Z,100.00
2023-04-19T23:54:32.208Z,100.00
2023-04-19T23:56:59.524Z,100.00
2023-04-19T23:59:29.087Z,100.00
